Time;durP1;ratioP1;P1;durP2;ratioP2;P2;SDS_P1;SDS_P2;PMS_P1;PMS_P2;Temp;Humidity;BMP_temperature;BMP_pressure;BME280_temperature;BME280_humidity;BME280_pressure;Samples;Min_cycle;Max_cycle;Signal;HPM_P1;HPM_P2
2022/03/03 00:02:01;;;;;;;25.47;9.97;;;;;;;-1.23;82.41;101672.00;6099309;28;20021;-69
2022/03/03 00:04:56;;;;;;;30.50;11.90;;;;;;;-1.34;82.47;101673.25;6101441;28;20094;-69
2022/03/03 00:07:52;;;;;;;30.90;12.73;;;;;;;-1.56;82.69;101688.63;6099620;28;20029;-69
2022/03/03 00:10:47;;;;;;;35.17;11.15;;;;;;;-1.71;82.39;101694.28;6100935;28;20028;-69
2022/03/03 00:13:43;;;;;;;27.70;10.03;;;;;;;-1.68;83.05;101698.53;6101216;28;20055;-68
2022/03/03 00:16:38;;;;;;;29.70;11.83;;;;;;;-1.64;82.13;101694.97;6101094;28;20410;-68
2022/03/03 00:19:33;;;;;;;30.13;10.83;;;;;;;-1.52;82.37;101694.59;6101692;28;20055;-69
2022/03/03 00:22:29;;;;;;;26.07;9.30;;;;;;;-1.58;83.34;101680.03;6100634;28;20092;-69
2022/03/03 00:25:24;;;;;;;28.37;10.23;;;;;;;-1.29;83.51;101680.00;6100527;28;20748;-69
2022/03/03 00:28:19;;;;;;;29.60;12.20;;;;;;;-1.45;83.48;101681.38;6101295;28;20033;-69
2022/03/03 00:31:15;;;;;;;35.10;13.10;;;;;;;-1.74;83.58;101681.38;6100501;28;20059;-69
2022/03/03 00:34:10;;;;;;;24.00;10.87;;;;;;;-1.79;84.25;101680.66;6101104;28;20029;-69
2022/03/03 00:37:05;;;;;;;25.20;10.93;;;;;;;-1.80;82.90;101684.16;6100727;28;20275;-69
2022/03/03 00:40:01;;;;;;;27.43;11.00;;;;;;;-1.79;82.85;101691.03;6099919;28;20388;-69
2022/03/03 00:42:57;;;;;;;28.50;9.50;;;;;;;-1.61;81.97;101700.94;6101197;28;20028;-69
2022/03/03 00:45:52;;;;;;;23.97;9.87;;;;;;;-1.67;81.75;101682.91;6100189;28;20456;-69
2022/03/03 00:48:47;;;;;;;28.03;9.93;;;;;;;-1.72;82.01;101690.00;6100631;28;20101;-68
2022/03/03 00:51:42;;;;;;;25.73;9.43;;;;;;;-1.54;82.08;101685.97;6099467;28;20029;-68
2022/03/03 00:54:38;;;;;;;22.87;9.00;;;;;;;-1.50;82.59;101666.81;6095694;28;20493;-69
2022/03/03 00:57:34;;;;;;;26.33;9.33;;;;;;;-1.57;82.00;101658.31;6100276;28;20336;-69
2022/03/03 01:00:30;;;;;;;26.08;9.45;;;;;;;-1.73;81.24;101659.69;6100051;28;20468;-69
2022/03/03 01:03:25;;;;;;;22.17;8.60;;;;;;;-1.60;81.83;101661.00;6100372;28;20029;-68
2022/03/03 01:06:20;;;;;;;21.93;10.17;;;;;;;-1.90;81.35;101651.50;6099584;28;20038;-69
2022/03/03 01:09:15;;;;;;;21.80;8.60;;;;;;;-1.85;82.28;101652.25;6100291;28;20029;-69
2022/03/03 01:12:11;;;;;;;23.93;8.23;;;;;;;-1.81;83.17;101646.91;6099180;28;20394;-69
2022/03/03 01:15:09;;;;;;;23.87;9.03;;;;;;;-1.79;82.58;101649.44;6099351;28;20036;-68
2022/03/03 01:18:04;;;;;;;24.17;9.68;;;;;;;-1.78;83.24;101647.72;6099780;28;20418;-69
2022/03/03 01:20:59;;;;;;;21.47;7.83;;;;;;;-1.99;83.41;101647.47;6099311;28;20024;-68
2022/03/03 01:23:54;;;;;;;27.40;10.10;;;;;;;-2.06;83.30;101645.91;6099570;28;20495;-69
2022/03/03 01:26:50;;;;;;;24.90;9.63;;;;;;;-1.99;83.43;101646.59;6099912;28;20286;-68
2022/03/03 01:29:45;;;;;;;24.10;8.27;;;;;;;-2.04;83.65;101638.09;6099688;28;20029;-68
2022/03/03 01:32:40;;;;;;;22.97;8.13;;;;;;;-2.06;82.73;101656.31;6099066;28;20021;-69
2022/03/03 01:35:36;;;;;;;26.20;8.90;;;;;;;-2.12;83.54;101653.03;6099457;28;20029;-68
2022/03/03 01:38:31;;;;;;;34.70;11.50;;;;;;;-2.11;82.84;101657.31;6099641;28;20029;-69
2022/03/03 01:41:26;;;;;;;24.30;10.07;;;;;;;-2.04;82.43;101648.47;6098783;28;20039;-68
2022/03/03 01:44:22;;;;;;;30.43;12.47;;;;;;;-2.13;82.05;101641.78;6099544;28;20267;-68
2022/03/03 01:47:19;;;;;;;24.20;9.77;;;;;;;-2.10;81.74;101639.13;6099327;28;20028;-68
2022/03/03 01:50:14;;;;;;;25.20;9.68;;;;;;;-1.98;81.82;101636.16;6098736;28;20025;-68
2022/03/03 01:53:10;;;;;;;22.53;8.67;;;;;;;-1.99;81.98;101631.88;6099101;28;20035;-70
2022/03/03 01:56:06;;;;;;;25.77;11.03;;;;;;;-1.98;82.87;101627.50;6098780;28;20032;-68
2022/03/03 01:59:03;;;;;;;27.45;10.48;;;;;;;-2.07;82.79;101610.47;6098190;28;20043;-68
2022/03/03 02:01:58;;;;;;;24.55;8.57;;;;;;;-2.12;83.22;101614.09;6098390;28;20124;-68
2022/03/03 02:04:54;;;;;;;20.93;9.10;;;;;;;-2.14;82.65;101621.03;6098977;28;20017;-69
2022/03/03 02:07:50;;;;;;;23.77;9.68;;;;;;;-2.39;82.20;101623.47;6098922;28;20360;-68
2022/03/03 02:10:45;;;;;;;26.00;9.27;;;;;;;-2.35;82.82;101637.22;6098266;28;20032;-68
2022/03/03 02:13:41;;;;;;;24.85;10.75;;;;;;;-2.32;82.82;101634.56;6098923;28;20286;-69
2022/03/03 02:16:36;;;;;;;26.20;9.90;;;;;;;-2.26;82.01;101621.41;6098276;28;20040;-69
2022/03/03 02:19:31;;;;;;;31.43;12.40;;;;;;;-2.22;81.83;101617.81;6098651;28;20128;-69
2022/03/03 02:22:26;;;;;;;28.13;9.67;;;;;;;-2.22;81.59;101617.81;6097548;28;20272;-69
2022/03/03 02:25:23;;;;;;;25.07;9.80;;;;;;;-2.07;81.76;101617.38;6097219;28;20533;-69
2022/03/03 02:28:18;;;;;;;27.42;11.70;;;;;;;-2.16;81.35;101621.09;6098284;28;20555;-69
2022/03/03 02:31:14;;;;;;;27.27;11.57;;;;;;;-2.18;81.22;101615.09;6097204;28;20035;-69
2022/03/03 02:34:09;;;;;;;32.58;10.52;;;;;;;-2.04;81.32;101612.09;6098552;28;20028;-69
2022/03/03 02:37:05;;;;;;;20.87;7.87;;;;;;;-1.95;81.89;101615.28;6097602;28;20025;-71
2022/03/03 02:40:01;;;;;;;23.80;9.57;;;;;;;-2.03;81.92;101619.00;6097416;28;20754;-69
2022/03/03 02:42:56;;;;;;;27.27;9.43;;;;;;;-2.09;82.90;101619.19;6098079;28;20426;-70
2022/03/03 02:45:51;;;;;;;24.83;9.43;;;;;;;-2.11;83.35;101607.97;6098096;28;20104;-69
2022/03/03 02:48:47;;;;;;;29.03;10.43;;;;;;;-2.39;83.13;101604.47;6098074;28;20032;-70
2022/03/03 02:51:42;;;;;;;26.70;9.93;;;;;;;-2.56;82.50;101598.00;6097441;28;20381;-70
2022/03/03 02:54:37;;;;;;;20.23;9.40;;;;;;;-2.68;83.48;101587.94;6097081;28;20029;-71
2022/03/03 03:00:47;;;;;;;22.73;9.55;;;;;;;-3.27;84.14;101586.03;6097338;28;20075;-70
2022/03/03 03:03:42;;;;;;;27.23;10.75;;;;;;;-3.12;84.97;101581.28;6098035;28;20112;-70
2022/03/03 03:06:38;;;;;;;26.43;10.40;;;;;;;-2.90;85.38;101589.38;6097152;28;20036;-69
2022/03/03 03:09:33;;;;;;;25.93;10.73;;;;;;;-2.98;85.35;101585.28;6094188;28;20029;-70
2022/03/03 03:12:28;;;;;;;30.03;10.40;;;;;;;-3.45;85.56;101586.47;6096808;28;20475;-69
2022/03/03 03:15:24;;;;;;;22.70;9.48;;;;;;;-3.73;85.68;101588.84;6097279;28;20024;-69
2022/03/03 03:18:21;;;;;;;24.88;10.07;;;;;;;-3.45;86.82;101596.84;6097250;28;20424;-69
2022/03/03 03:21:16;;;;;;;26.13;10.75;;;;;;;-3.25;87.25;101594.59;6096537;28;20078;-69
2022/03/03 03:24:11;;;;;;;28.70;12.60;;;;;;;-3.03;87.86;101595.78;6097932;28;20037;-69
2022/03/03 03:27:07;;;;;;;27.50;10.33;;;;;;;-3.01;87.38;101588.81;6096228;28;20045;-69
2022/03/03 03:30:04;;;;;;;28.83;11.03;;;;;;;-3.28;86.86;101589.47;6097083;28;20368;-69
2022/03/03 03:32:59;;;;;;;33.40;11.25;;;;;;;-2.97;86.84;101585.25;6096991;28;20547;-69
2022/03/03 03:35:56;;;;;;;25.42;9.68;;;;;;;-3.54;86.58;101577.16;6096818;28;20051;-69
2022/03/03 03:38:51;;;;;;;23.45;9.13;;;;;;;-3.81;86.93;101589.03;6097168;28;20503;-69
2022/03/03 03:41:47;;;;;;;31.90;10.87;;;;;;;-3.34;88.20;101584.47;6096126;28;20033;-69
2022/03/03 03:44:43;;;;;;;27.52;10.43;;;;;;;-3.02;88.24;101582.75;6096885;28;20029;-69
2022/03/03 03:47:39;;;;;;;24.43;8.63;;;;;;;-3.01;87.75;101591.41;6097030;28;20082;-69
2022/03/03 03:50:34;;;;;;;29.05;11.65;;;;;;;-3.00;88.20;101595.69;6096428;28;20079;-69
2022/03/03 03:53:29;;;;;;;26.57;10.37;;;;;;;-2.98;87.87;101599.09;6096677;28;20021;-69
2022/03/03 03:56:25;;;;;;;29.87;10.77;;;;;;;-2.93;87.66;101597.25;6096346;28;20294;-69
2022/03/03 03:59:20;;;;;;;25.57;9.77;;;;;;;-2.88;87.91;101615.31;6096485;28;20021;-69
2022/03/03 04:02:16;;;;;;;22.10;10.13;;;;;;;-3.04;87.46;101607.88;6095652;28;20037;-69
2022/03/03 04:05:13;;;;;;;27.38;11.23;;;;;;;-3.09;87.57;101595.94;6097085;28;20017;-69
2022/03/03 04:08:08;;;;;;;25.73;9.48;;;;;;;-3.01;87.57;101587.06;6096850;28;20116;-69
2022/03/03 04:11:03;;;;;;;26.98;8.77;;;;;;;-2.84;88.21;101586.63;6095965;28;20039;-69
2022/03/03 04:13:59;;;;;;;24.73;10.57;;;;;;;-3.05;87.10;101592.38;6096847;28;20041;-69
2022/03/03 04:16:54;;;;;;;31.23;11.17;;;;;;;-2.98;87.59;101593.91;6096538;28;20028;-69
2022/03/03 04:19:49;;;;;;;33.47;11.87;;;;;;;-3.03;87.18;101595.78;6096978;28;20025;-69
2022/03/03 04:22:45;;;;;;;24.47;9.17;;;;;;;-2.88;88.09;101582.41;6096328;28;20367;-69
2022/03/03 04:25:40;;;;;;;22.33;9.33;;;;;;;-3.14;87.96;101582.22;6096677;28;20025;-68
2022/03/03 04:28:36;;;;;;;26.30;11.13;;;;;;;-2.88;87.48;101576.38;6096839;28;20263;-68
2022/03/03 04:31:31;;;;;;;26.42;11.50;;;;;;;-3.10;87.62;101563.94;6095717;28;20785;-69
2022/03/03 04:34:27;;;;;;;29.07;10.93;;;;;;;-3.11;87.42;101584.75;6096249;28;20040;-69
2022/03/03 04:37:22;;;;;;;33.50;10.80;;;;;;;-3.20;87.20;101595.34;6096415;28;20029;-69
2022/03/03 04:40:17;;;;;;;24.67;8.73;;;;;;;-3.34;86.90;101589.66;6095631;28;20029;-69
2022/03/03 04:43:13;;;;;;;23.60;8.75;;;;;;;-3.41;86.83;101590.69;6096309;28;20037;-69
2022/03/03 04:46:08;;;;;;;22.53;9.23;;;;;;;-3.89;87.22;101588.34;6096045;28;20371;-69
2022/03/03 04:49:04;;;;;;;20.80;9.07;;;;;;;-3.99;88.32;101594.59;6099072;28;20384;-69
2022/03/03 04:51:59;;;;;;;30.67;10.97;;;;;;;-3.32;88.56;101596.50;6099835;28;20033;-69
2022/03/03 04:54:54;;;;;;;26.67;11.77;;;;;;;-3.26;88.45;101583.38;6100623;28;20021;-69
2022/03/03 04:57:50;;;;;;;28.63;9.77;;;;;;;-3.32;88.42;101587.88;6100536;28;20028;-69
2022/03/03 05:00:45;;;;;;;21.67;8.43;;;;;;;-3.33;88.17;101596.53;6099437;28;20025;-69
2022/03/03 05:03:40;;;;;;;29.47;11.27;;;;;;;-3.49;87.82;101595.19;6100680;28;20036;-69
2022/03/03 05:06:35;;;;;;;22.00;8.27;;;;;;;-3.56;87.86;101604.00;6099828;28;20036;-69
2022/03/03 05:09:32;;;;;;;25.80;8.80;;;;;;;-3.62;87.83;101605.84;6100438;28;20048;-68
2022/03/03 05:12:27;;;;;;;22.00;8.18;;;;;;;-3.45;88.12;101596.84;6099558;28;20071;-68
2022/03/03 05:15:22;;;;;;;29.07;10.63;;;;;;;-3.54;88.03;101589.28;6099914;28;20029;-68
2022/03/03 05:18:18;;;;;;;29.10;10.55;;;;;;;-3.92;87.84;101590.13;6100119;28;20024;-69
2022/03/03 05:21:13;;;;;;;23.25;9.60;;;;;;;-3.90;88.75;101601.31;6098551;28;20472;-68
2022/03/03 05:24:09;;;;;;;29.07;9.30;;;;;;;-3.77;88.44;101605.31;6100490;28;20029;-68
2022/03/03 05:27:04;;;;;;;28.77;10.03;;;;;;;-3.64;88.04;101610.19;6097920;28;20056;-69
2022/03/03 05:30:00;;;;;;;26.67;10.60;;;;;;;-3.82;88.31;101604.56;6098998;28;20483;-68
2022/03/03 05:32:57;;;;;;;28.58;10.38;;;;;;;-3.99;87.67;101597.16;6100109;28;20029;-69
2022/03/03 05:35:58;;;;;;;34.38;11.30;;;;;;;-4.34;88.37;101607.41;6099393;28;20029;-68
2022/03/03 05:38:56;;;;;;;32.75;9.73;;;;;;;-4.63;88.41;101604.53;6100145;28;20159;-68
2022/03/03 05:41:54;;;;;;;30.23;10.68;;;;;;;-4.39;89.74;101604.06;6098214;28;20036;-68
2022/03/03 05:44:50;;;;;;;33.03;10.82;;;;;;;-4.40;89.50;101597.16;6099058;28;20052;-68
2022/03/03 05:47:46;;;;;;;26.73;9.80;;;;;;;-3.77;89.80;101592.38;6099200;28;20495;-68
2022/03/03 05:50:41;;;;;;;29.50;10.55;;;;;;;-4.06;89.40;101582.66;6098668;28;20436;-68
2022/03/03 05:53:36;;;;;;;29.17;10.70;;;;;;;-3.82;89.36;101584.72;6099888;28;20029;-68
2022/03/03 05:56:35;;;;;;;25.10;10.47;;;;;;;-3.76;89.61;101589.75;6099297;28;20044;-69
2022/03/03 05:59:31;;;;;;;29.15;10.35;;;;;;;-3.79;88.98;101587.25;6103184;28;20037;-69
2022/03/03 06:02:27;;;;;;;28.23;10.63;;;;;;;-4.05;89.04;101583.53;6098534;28;20037;-68
2022/03/03 06:05:24;;;;;;;29.63;9.93;;;;;;;-3.75;89.09;101588.03;6099144;28;20429;-68
2022/03/03 06:08:30;;;;;;;33.80;10.35;;;;;;;-3.64;88.91;101580.84;6099539;28;20020;-68
2022/03/03 06:11:27;;;;;;;27.13;10.52;;;;;;;-3.77;88.28;101584.59;6097858;28;20095;-68
2022/03/03 06:14:43;;;;;;;35.75;11.07;;;;;;;-3.58;88.82;101579.84;6103020;28;20456;-68
2022/03/03 06:17:39;;;;;;;33.95;10.68;;;;;;;-3.76;88.21;101576.81;6098276;28;20519;-68
2022/03/03 06:20:36;;;;;;;33.75;10.88;;;;;;;-3.93;88.63;101583.25;6096063;28;20550;-68
2022/03/03 06:23:31;;;;;;;31.10;10.40;;;;;;;-3.85;88.86;101589.97;6099252;28;20451;-68
2022/03/03 06:26:27;;;;;;;29.40;11.23;;;;;;;-3.59;89.32;101583.34;6098384;28;20037;-68
2022/03/03 06:29:22;;;;;;;35.30;10.93;;;;;;;-3.55;88.50;101579.78;6099067;28;20025;-68
2022/03/03 06:32:17;;;;;;;26.60;9.87;;;;;;;-3.78;88.70;101596.69;6096334;28;20263;-68
2022/03/03 06:35:13;;;;;;;27.60;9.50;;;;;;;-3.37;89.54;101571.59;6092170;28;20029;-68
2022/03/03 06:38:08;;;;;;;32.07;10.57;;;;;;;-3.39;88.32;101555.19;6093662;28;20087;-68
2022/03/03 06:41:05;;;;;;;26.43;10.20;;;;;;;-3.33;88.12;101570.59;6097996;28;20271;-68
2022/03/03 06:44:00;;;;;;;26.73;11.25;;;;;;;-3.42;87.67;101570.81;6101664;28;20175;-68
2022/03/03 06:46:56;;;;;;;30.50;11.50;;;;;;;-3.37;87.92;101584.53;6096553;28;20430;-68
2022/03/03 06:49:51;;;;;;;29.87;12.53;;;;;;;-3.13;87.77;101574.44;6098097;28;20307;-68
2022/03/03 06:52:47;;;;;;;29.30;11.60;;;;;;;-3.34;87.38;101574.09;6097007;28;20035;-68
2022/03/03 06:55:44;;;;;;;30.05;11.55;;;;;;;-3.49;88.04;101564.94;6095972;28;20035;-67
2022/03/03 06:58:40;;;;;;;24.98;9.88;;;;;;;-3.04;88.50;101574.16;6095936;28;20048;-69
2022/03/03 07:01:36;;;;;;;28.60;10.50;;;;;;;-2.34;88.50;101572.28;6089432;28;20028;-68
2022/03/03 07:04:33;;;;;;;36.45;11.88;;;;;;;-1.91;87.24;101570.13;6097789;28;20379;-69
2022/03/03 07:07:29;;;;;;;38.33;12.95;;;;;;;-1.85;85.52;101566.50;6096818;28;20039;-69
2022/03/03 07:10:25;;;;;;;34.38;12.90;;;;;;;-2.03;85.77;101551.44;6095444;28;20037;-69
2022/03/03 07:13:20;;;;;;;32.03;12.45;;;;;;;-1.94;85.41;101558.97;6096994;28;20056;-69
2022/03/03 07:16:23;;;;;;;30.23;11.80;;;;;;;-1.51;85.29;101550.69;6097129;28;20112;-69
2022/03/03 07:19:37;;;;;;;35.03;11.07;;;;;;;-0.99;84.38;101550.66;6097926;28;20255;-69
2022/03/03 07:22:40;;;;;;;40.13;13.35;;;;;;;-0.73;83.63;101541.94;6096405;28;20402;-68
2022/03/03 07:25:40;;;;;;;35.47;13.43;;;;;;;-0.47;82.95;101544.47;6097311;28;20108;-68
2022/03/03 07:28:39;;;;;;;34.50;13.07;;;;;;;-0.33;81.28;101531.78;6097090;28;20036;-69
2022/03/03 07:31:40;;;;;;;40.50;14.98;;;;;;;-0.14;81.31;101532.78;6096411;28;20472;-69
2022/03/03 07:34:38;;;;;;;39.90;14.57;;;;;;;0.17;81.36;101526.38;6097494;28;20021;-70
2022/03/03 07:37:40;;;;;;;39.28;14.90;;;;;;;0.29;79.42;101525.91;6097661;28;20036;-70
2022/03/03 07:40:37;;;;;;;37.08;13.32;;;;;;;0.68;79.17;101550.38;6096871;28;20033;-71
2022/03/03 07:43:33;;;;;;;37.22;14.02;;;;;;;0.89;77.59;101553.88;6096148;28;20037;-71
2022/03/03 07:46:28;;;;;;;35.90;14.68;;;;;;;0.98;77.32;101558.72;6097141;28;20033;-71
2022/03/03 07:49:25;;;;;;;46.22;16.83;;;;;;;0.79;77.45;101573.44;6097288;28;20032;-71
2022/03/03 07:52:20;;;;;;;45.08;17.15;;;;;;;0.72;78.10;101570.22;6094731;28;20044;-71
2022/03/03 07:55:16;;;;;;;45.47;16.50;;;;;;;0.64;77.68;101581.88;6097256;28;20025;-70
2022/03/03 07:58:20;;;;;;;46.35;17.75;;;;;;;0.68;78.16;101581.69;6098601;28;20021;-70
2022/03/03 08:01:19;;;;;;;43.17;15.68;;;;;;;0.75;78.38;101590.13;6090328;28;20079;-70
2022/03/03 08:04:15;;;;;;;48.70;19.27;;;;;;;0.62;78.47;101601.97;6094326;28;20100;-70
2022/03/03 08:07:13;;;;;;;48.75;18.35;;;;;;;0.68;78.55;101601.72;6096580;28;20545;-70
2022/03/03 08:10:09;;;;;;;47.05;18.40;;;;;;;0.64;78.87;101600.16;6094777;28;20044;-70
2022/03/03 08:13:06;;;;;;;43.03;16.73;;;;;;;0.86;79.64;101601.84;6096975;28;20455;-71
2022/03/03 08:16:02;;;;;;;46.80;15.73;;;;;;;1.09;78.99;101599.09;6097140;28;20075;-71
2022/03/03 08:19:00;;;;;;;49.88;19.45;;;;;;;1.04;77.84;101601.06;6096293;28;20383;-71
2022/03/03 08:21:55;;;;;;;47.05;18.83;;;;;;;0.93;78.16;101600.66;6094578;28;20441;-71
2022/03/03 08:24:55;;;;;;;44.22;16.83;;;;;;;1.33;77.56;101597.25;6100673;28;20024;-72
2022/03/03 08:27:53;;;;;;;46.10;17.48;;;;;;;1.53;76.92;101601.59;6039127;28;20081;-72
2022/03/03 08:30:55;;;;;;;45.95;17.98;;;;;;;1.36;77.06;101602.31;6061165;28;20038;-72
2022/03/03 08:34:09;;;;;;;45.50;18.80;;;;;;;1.28;77.41;101595.75;6071412;28;20120;-72
2022/03/03 08:37:07;;;;;;;39.80;16.35;;;;;;;1.33;77.55;101594.63;6053019;28;20032;-73
2022/03/03 08:40:05;;;;;;;44.83;16.23;;;;;;;1.62;76.58;101581.13;6052485;28;20057;-73
2022/03/03 08:43:03;;;;;;;52.97;18.08;;;;;;;2.08;75.54;101584.28;6053034;28;20041;-73
2022/03/03 08:46:04;;;;;;;47.65;17.30;;;;;;;2.14;75.03;101582.25;6061080;28;20041;-72
2022/03/03 08:49:00;;;;;;;;;;;;;;;2.59;73.35;101578.34;6058409;28;20034;-73
2022/03/03 08:51:56;;;;;;;41.22;14.90;;;;;;;2.39;74.13;101580.16;6050786;28;20373;-73
2022/03/03 08:54:52;;;;;;;41.17;16.40;;;;;;;2.75;72.54;101587.16;6053033;28;20029;-73
2022/03/03 08:57:47;;;;;;;47.92;16.98;;;;;;;2.69;71.87;101587.47;6052193;28;20030;-73
2022/03/03 09:00:43;;;;;;;48.33;17.00;;;;;;;2.89;71.76;101576.84;6051943;28;20030;-72
2022/03/03 09:03:40;;;;;;;54.60;17.52;;;;;;;3.12;71.00;101576.56;6052924;28;20307;-72
2022/03/03 09:06:35;;;;;;;38.15;15.32;;;;;;;3.68;70.21;101585.88;6052571;28;20030;-73
2022/03/03 09:09:30;;;;;;;39.53;15.50;;;;;;;3.89;68.37;101576.88;6051693;28;20041;-72
2022/03/03 09:12:26;;;;;;;37.20;15.17;;;;;;;3.98;65.62;101576.38;6051641;28;20272;-72
2022/03/03 09:15:21;;;;;;;39.17;13.97;;;;;;;3.77;66.66;101580.16;6050096;28;20016;-71
2022/03/03 09:18:16;;;;;;;40.17;17.03;;;;;;;3.61;68.14;101583.56;6042776;28;20037;-72
2022/03/03 09:21:12;;;;;;;46.20;16.50;;;;;;;3.72;67.95;101579.56;6050218;28;20064;-72
2022/03/03 09:24:08;;;;;;;39.33;16.87;;;;;;;4.14;66.72;101590.38;6052515;28;20029;-74
2022/03/03 09:27:04;;;;;;;36.75;15.50;;;;;;;4.29;64.38;101592.16;6051486;28;20616;-71
2022/03/03 09:30:00;;;;;;;34.13;14.55;;;;;;;4.31;65.16;101574.53;6051759;28;20534;-74
2022/03/03 09:32:55;;;;;;;39.17;16.57;;;;;;;4.48;66.02;101570.97;6051676;28;20033;-74
2022/03/03 09:35:51;;;;;;;35.87;15.83;;;;;;;4.69;64.84;101575.00;6050281;28;20108;-73
2022/03/03 09:38:46;;;;;;;33.35;15.43;;;;;;;5.07;64.54;101578.91;6051993;28;20489;-73
2022/03/03 09:41:41;;;;;;;37.15;14.98;;;;;;;4.74;65.20;101573.81;6050547;28;20469;-73
2022/03/03 09:44:37;;;;;;;38.20;15.20;;;;;;;5.06;65.39;101571.09;6052158;28;20030;-72
2022/03/03 09:47:36;;;;;;;38.78;16.17;;;;;;;4.97;63.84;101575.13;6058790;28;20339;-71
2022/03/03 09:50:32;;;;;;;41.60;17.48;;;;;;;5.00;63.69;101572.31;6057777;28;20504;-72
2022/03/03 09:53:27;;;;;;;38.10;15.48;;;;;;;5.32;62.29;101570.44;6051822;28;20466;-73
2022/03/03 09:56:22;;;;;;;37.47;15.33;;;;;;;5.43;61.31;101570.63;6050825;28;20107;-72
2022/03/03 09:59:18;;;;;;;42.63;17.40;;;;;;;5.16;62.03;101574.91;6051619;28;20037;-72
2022/03/03 10:02:13;;;;;;;41.93;17.07;;;;;;;5.39;62.93;101577.84;6049802;28;20385;-72
2022/03/03 10:05:08;;;;;;;38.85;15.65;;;;;;;5.19;61.69;101579.97;6049328;28;20030;-72
2022/03/03 10:08:11;;;;;;;37.50;15.73;;;;;;;5.62;60.48;101568.59;6046354;28;20080;-70
2022/03/03 10:11:09;;;;;;;38.28;14.82;;;;;;;5.56;59.85;101568.94;6049359;28;20088;-71
2022/03/03 10:14:04;;;;;;;37.92;15.68;;;;;;;5.56;60.65;101563.69;6050744;28;20029;-70
2022/03/03 10:17:00;;;;;;;37.80;16.30;;;;;;;5.49;60.70;101562.34;6050336;28;20030;-70
2022/03/03 10:19:57;;;;;;;37.38;16.33;;;;;;;5.54;60.95;101570.84;6050632;28;20076;-71
2022/03/03 10:22:57;;;;;;;40.45;16.75;;;;;;;6.13;59.86;101569.78;6049931;28;20030;-71
2022/03/03 10:25:53;;;;;;;40.80;16.90;;;;;;;6.36;59.67;101577.06;6050802;28;20490;-70
2022/03/03 10:28:49;;;;;;;42.30;17.02;;;;;;;6.20;60.33;101580.78;6050537;28;20049;-71
2022/03/03 10:31:50;;;;;;;40.00;15.57;;;;;;;6.49;58.94;101577.16;6049902;28;20033;-73
2022/03/03 10:34:45;;;;;;;42.17;16.10;;;;;;;6.94;59.81;101568.88;6050892;28;20022;-69
2022/03/03 10:37:42;;;;;;;43.30;17.63;;;;;;;6.87;60.32;101582.56;6049773;28;20484;-70
2022/03/03 10:40:38;;;;;;;42.05;17.58;;;;;;;7.12;58.26;101575.53;6038142;28;20373;-71
2022/03/03 10:43:46;;;;;;;44.03;17.85;;;;;;;6.91;57.75;101569.06;6050893;28;20030;-70
2022/03/03 10:47:07;;;;;;;36.13;15.02;;;;;;;6.98;57.28;101572.16;6049158;28;20033;-70
2022/03/03 10:50:03;;;;;;;42.67;17.45;;;;;;;7.01;56.88;101572.78;6062535;28;20033;-71
2022/03/03 10:53:08;;;;;;;38.78;16.00;;;;;;;6.92;56.72;101565.50;6049396;28;20065;-69
2022/03/03 10:56:06;;;;;;;43.00;15.32;;;;;;;6.91;56.33;101566.44;6050168;28;20033;-70
2022/03/03 10:59:04;;;;;;;36.80;14.82;;;;;;;6.90;55.57;101562.09;6049497;28;20065;-71
2022/03/03 11:02:00;;;;;;;38.80;15.52;;;;;;;6.80;56.37;101560.16;6048783;28;20120;-70
2022/03/03 11:04:56;;;;;;;34.40;15.70;;;;;;;7.30;56.15;101555.00;6050337;28;20036;-70
2022/03/03 11:07:53;;;;;;;34.78;15.40;;;;;;;7.54;55.96;101558.59;6048312;28;20064;-71
2022/03/03 11:10:49;;;;;;;34.65;15.85;;;;;;;7.34;56.00;101543.28;6049085;28;20034;-71
2022/03/03 11:13:47;;;;;;;37.20;15.95;;;;;;;7.50;57.04;101545.72;6048488;28;20033;-71
2022/03/03 11:16:42;;;;;;;35.30;13.82;;;;;;;7.53;53.96;101545.50;6049586;28;20221;-71
2022/03/03 11:19:38;;;;;;;39.13;15.90;;;;;;;7.79;55.14;101542.75;6048765;28;20042;-69
2022/03/03 11:22:33;;;;;;;40.33;15.30;;;;;;;7.61;54.10;101548.47;6049440;28;20030;-69
2022/03/03 11:25:34;;;;;;;31.95;13.02;;;;;;;7.56;53.64;101550.56;6049650;28;20049;-70
2022/03/03 11:28:36;;;;;;;36.38;14.95;;;;;;;7.53;54.26;101542.84;6049426;28;20544;-72
2022/03/03 11:31:33;;;;;;;38.60;14.65;;;;;;;7.80;54.12;101536.50;6047898;28;20037;-71
2022/03/03 11:34:32;;;;;;;34.47;13.75;;;;;;;7.45;52.21;101537.25;6049141;28;20026;-69
2022/03/03 11:37:29;;;;;;;31.52;13.20;;;;;;;7.25;54.63;101529.88;6048652;28;20033;-71
2022/03/03 11:40:24;;;;;;;30.70;12.18;;;;;;;7.51;53.34;101534.22;6048443;28;20042;-70
2022/03/03 11:43:19;;;;;;;31.60;12.90;;;;;;;7.51;53.75;101527.13;6064088;28;20029;-70
2022/03/03 11:46:43;;;;;;;31.13;12.40;;;;;;;7.89;52.00;101520.94;6049281;28;20018;-71
2022/03/03 11:49:57;;;;;;;29.42;11.18;;;;;;;7.85;50.34;101522.16;6054428;28;20034;-69
2022/03/03 11:52:59;;;;;;;27.95;11.85;;;;;;;8.02;50.39;101524.41;6052741;28;20653;-71
2022/03/03 11:55:59;;;;;;;26.92;11.20;;;;;;;8.13;49.71;101519.19;6049203;28;20376;-71
2022/03/03 11:59:10;;;;;;;29.20;11.30;;;;;;;8.01;49.09;101515.66;6053752;28;20111;-72
2022/03/03 12:02:06;;;;;;;22.75;9.45;;;;;;;8.03;48.60;101513.75;6052438;28;20033;-69
2022/03/03 12:05:27;;;;;;;29.85;11.02;;;;;;;8.15;49.87;101518.13;6053491;28;20052;-69
2022/03/03 12:08:22;;;;;;;30.35;11.30;;;;;;;8.05;50.69;101517.13;6053624;28;20022;-70
2022/03/03 12:11:18;;;;;;;26.75;10.82;;;;;;;8.05;51.02;101517.13;6053542;28;20044;-71
2022/03/03 12:14:33;;;;;;;28.15;10.43;;;;;;;7.94;50.35;101508.25;6053468;28;20026;-69
2022/03/03 12:17:46;;;;;;;24.60;10.07;;;;;;;7.88;50.18;101514.81;6053796;28;20030;-71
2022/03/03 12:20:45;;;;;;;24.67;10.10;;;;;;;7.94;49.86;101508.25;6050661;28;20029;-70
2022/03/03 12:23:41;;;;;;;22.23;9.07;;;;;;;7.82;49.75;101510.00;6053636;28;20056;-71
2022/03/03 12:26:59;;;;;;;24.70;9.40;;;;;;;7.96;49.41;101514.31;6068277;28;20293;-71
2022/03/03 12:29:57;;;;;;;24.10;9.45;;;;;;;8.03;50.41;101503.19;6053068;28;20308;-70
2022/03/03 12:32:56;;;;;;;24.00;8.45;;;;;;;7.88;49.46;101498.16;6052485;28;20037;-70
2022/03/03 12:35:52;;;;;;;22.55;8.88;;;;;;;7.87;49.21;101512.31;6052350;28;20112;-71
2022/03/03 12:38:47;;;;;;;23.50;8.75;;;;;;;8.06;50.52;101497.69;6052124;28;20045;-71
2022/03/03 12:41:43;;;;;;;23.63;10.02;;;;;;;7.85;50.84;101493.94;6052521;28;20025;-70
2022/03/03 12:44:38;;;;;;;21.02;9.38;;;;;;;8.08;50.10;101498.41;6052033;28;20453;-72
2022/03/03 12:47:41;;;;;;;29.45;11.00;;;;;;;7.90;50.62;101483.91;6051839;28;20442;-70
2022/03/03 12:50:36;;;;;;;25.02;10.65;;;;;;;7.98;50.63;101481.53;6058139;28;20037;-71
2022/03/03 12:53:43;;;;;;;28.33;10.70;;;;;;;8.07;51.72;101480.84;6062046;28;20052;-71
2022/03/03 12:56:40;;;;;;;25.67;10.38;;;;;;;7.78;52.07;101488.25;6052903;28;20288;-70
2022/03/03 12:59:36;;;;;;;27.90;10.05;;;;;;;7.72;52.83;101482.53;6052038;28;20133;-71
2022/03/03 13:02:57;;;;;;;26.60;10.80;;;;;;;7.91;53.12;101482.91;6051498;28;20033;-70
2022/03/03 13:05:55;;;;;;;;;;;;;;;8.12;54.74;101481.41;6053246;28;20033;-71
2022/03/03 13:08:58;;;;;;;29.98;13.93;;;;;;;8.00;56.73;101486.69;6050644;28;19963;-70
2022/03/03 13:11:54;;;;;;;34.33;13.38;;;;;;;7.71;60.05;101492.28;6051647;28;20488;-71
2022/03/03 13:14:57;;;;;;;35.33;13.38;;;;;;;8.00;60.09;101482.28;6052159;28;20028;-70
2022/03/03 13:17:58;;;;;;;32.25;13.85;;;;;;;7.74;61.32;101494.72;6054698;28;20038;-71
2022/03/03 13:20:58;;;;;;;35.67;13.95;;;;;;;7.65;63.07;101484.78;6050931;28;20033;-72
2022/03/03 13:24:09;;;;;;;32.40;13.75;;;;;;;7.32;62.82;101500.34;6052566;28;20041;-70
2022/03/03 13:27:04;;;;;;;28.65;11.90;;;;;;;7.29;64.12;101497.06;6050870;28;20489;-69
2022/03/03 13:30:09;;;;;;;30.57;12.80;;;;;;;7.31;63.51;101490.72;6051451;28;20056;-73
2022/03/03 13:33:04;;;;;;;31.27;11.70;;;;;;;7.04;63.70;101496.09;6051757;28;20022;-72
2022/03/03 13:36:13;;;;;;;29.33;11.97;;;;;;;7.03;63.35;101498.84;6052357;28;20033;-71